sensor_id;sensor_type;location;lat;lon;timestamp;temperature;humidity
25622;DHT22;13487;39.360;22.962;2023-03-14T00:00:08;8.50;1.00
25622;DHT22;13487;39.360;22.962;2023-03-14T00:02:36;8.60;1.00
25622;DHT22;13487;39.360;22.962;2023-03-14T00:05:02;8.90;1.00
25622;DHT22;13487;39.360;22.962;2023-03-14T00:07:35;9.10;1.00
25622;DHT22;13487;39.360;22.962;2023-03-14T00:10:09;9.00;1.00
25622;DHT22;13487;39.360;22.962;2023-03-14T00:12:37;9.20;1.00
25622;DHT22;13487;39.360;22.962;2023-03-14T00:15:03;9.30;1.00
25622;DHT22;13487;39.360;22.962;2023-03-14T00:17:30;9.40;1.00
25622;DHT22;13487;39.360;22.962;2023-03-14T00:19:56;9.20;1.00
25622;DHT22;13487;39.360;22.962;2023-03-14T00:22:22;9.30;1.00
25622;DHT22;13487;39.360;22.962;2023-03-14T00:24:48;9.30;1.00
25622;DHT22;13487;39.360;22.962;2023-03-14T00:27:14;9.20;1.00
25622;DHT22;13487;39.360;22.962;2023-03-14T00:29:39;9.20;1.00
25622;DHT22;13487;39.360;22.962;2023-03-14T00:32:05;9.20;1.00
25622;DHT22;13487;39.360;22.962;2023-03-14T00:34:31;9.20;1.00
25622;DHT22;13487;39.360;22.962;2023-03-14T00:36:57;9.20;1.00
25622;DHT22;13487;39.360;22.962;2023-03-14T00:39:23;9.20;1.00
25622;DHT22;13487;39.360;22.962;2023-03-14T00:41:49;9.20;1.00
25622;DHT22;13487;39.360;22.962;2023-03-14T00:44:14;9.10;1.00
25622;DHT22;13487;39.360;22.962;2023-03-14T00:46:40;9.10;1.00
25622;DHT22;13487;39.360;22.962;2023-03-14T00:49:06;9.10;1.00
25622;DHT22;13487;39.360;22.962;2023-03-14T00:51:32;9.00;1.00
25622;DHT22;13487;39.360;22.962;2023-03-14T00:53:59;8.80;1.00
25622;DHT22;13487;39.360;22.962;2023-03-14T00:56:25;8.50;1.00
25622;DHT22;13487;39.360;22.962;2023-03-14T00:58:55;8.50;99.90
25622;DHT22;13487;39.360;22.962;2023-03-14T01:01:22;8.40;99.90
25622;DHT22;13487;39.360;22.962;2023-03-14T01:03:51;8.30;99.90
25622;DHT22;13487;39.360;22.962;2023-03-14T01:06:19;8.10;1.00
25622;DHT22;13487;39.360;22.962;2023-03-14T01:08:46;8.00;1.00
25622;DHT22;13487;39.360;22.962;2023-03-14T01:11:19;8.10;1.00
25622;DHT22;13487;39.360;22.962;2023-03-14T01:13:47;8.30;1.00
25622;DHT22;13487;39.360;22.962;2023-03-14T01:16:14;8.60;1.00
25622;DHT22;13487;39.360;22.962;2023-03-14T01:18:42;8.70;1.00
25622;DHT22;13487;39.360;22.962;2023-03-14T01:21:21;8.80;99.90
25622;DHT22;13487;39.360;22.962;2023-03-14T01:23:48;8.90;99.90
25622;DHT22;13487;39.360;22.962;2023-03-14T01:26:17;9.00;99.90
25622;DHT22;13487;39.360;22.962;2023-03-14T01:28:45;9.00;99.90
25622;DHT22;13487;39.360;22.962;2023-03-14T01:31:11;9.10;99.90
25622;DHT22;13487;39.360;22.962;2023-03-14T01:33:38;9.00;99.90
25622;DHT22;13487;39.360;22.962;2023-03-14T01:36:04;9.00;33.20
25622;DHT22;13487;39.360;22.962;2023-03-14T01:38:30;8.70;18.10
25622;DHT22;13487;39.360;22.962;2023-03-14T01:40:57;8.70;82.10
25622;DHT22;13487;39.360;22.962;2023-03-14T01:43:23;8.80;62.90
25622;DHT22;13487;39.360;22.962;2023-03-14T01:51:19;7.90;1.00
25622;DHT22;13487;39.360;22.962;2023-03-14T01:53:48;8.20;1.00
25622;DHT22;13487;39.360;22.962;2023-03-14T01:56:15;8.40;99.90
25622;DHT22;13487;39.360;22.962;2023-03-14T01:58:46;8.20;99.90
25622;DHT22;13487;39.360;22.962;2023-03-14T02:01:16;7.90;1.00
25622;DHT22;13487;39.360;22.962;2023-03-14T02:03:56;7.90;13.00
25622;DHT22;13487;39.360;22.962;2023-03-14T02:06:29;8.20;1.00
25622;DHT22;13487;39.360;22.962;2023-03-14T02:08:57;8.30;1.00
25622;DHT22;13487;39.360;22.962;2023-03-14T02:11:27;8.30;1.00
25622;DHT22;13487;39.360;22.962;2023-03-14T02:13:54;8.20;99.90
25622;DHT22;13487;39.360;22.962;2023-03-14T02:16:20;8.00;99.90
25622;DHT22;13487;39.360;22.962;2023-03-14T02:18:47;7.80;1.00
25622;DHT22;13487;39.360;22.962;2023-03-14T02:23:57;7.80;99.90
25622;DHT22;13487;39.360;22.962;2023-03-14T02:26:34;7.90;1.00
25622;DHT22;13487;39.360;22.962;2023-03-14T02:29:02;7.70;99.90
25622;DHT22;13487;39.360;22.962;2023-03-14T02:31:28;7.80;1.00
25622;DHT22;13487;39.360;22.962;2023-03-14T02:33:55;7.70;1.00
25622;DHT22;13487;39.360;22.962;2023-03-14T02:36:22;7.70;99.90
25622;DHT22;13487;39.360;22.962;2023-03-14T02:39:13;7.50;1.00
25622;DHT22;13487;39.360;22.962;2023-03-14T02:41:39;7.70;99.90
25622;DHT22;13487;39.360;22.962;2023-03-14T02:44:05;7.60;99.90
25622;DHT22;13487;39.360;22.962;2023-03-14T02:46:31;7.70;1.00
25622;DHT22;13487;39.360;22.962;2023-03-14T02:49:03;7.80;97.30
25622;DHT22;13487;39.360;22.962;2023-03-14T02:51:30;8.00;99.90
25622;DHT22;13487;39.360;22.962;2023-03-14T02:53:57;8.20;1.00
25622;DHT22;13487;39.360;22.962;2023-03-14T02:56:23;8.20;1.00
25622;DHT22;13487;39.360;22.962;2023-03-14T02:58:49;8.20;58.60
25622;DHT22;13487;39.360;22.962;2023-03-14T03:01:14;8.20;99.90
25622;DHT22;13487;39.360;22.962;2023-03-14T03:03:40;8.30;99.90
25622;DHT22;13487;39.360;22.962;2023-03-14T03:06:06;8.20;73.00
25622;DHT22;13487;39.360;22.962;2023-03-14T03:08:33;8.00;1.00
25622;DHT22;13487;39.360;22.962;2023-03-14T03:10:59;8.00;1.00
25622;DHT22;13487;39.360;22.962;2023-03-14T03:13:25;7.90;1.00
25622;DHT22;13487;39.360;22.962;2023-03-14T03:15:52;8.00;1.00
25622;DHT22;13487;39.360;22.962;2023-03-14T03:18:17;8.00;1.00
25622;DHT22;13487;39.360;22.962;2023-03-14T03:20:43;8.00;1.00
25622;DHT22;13487;39.360;22.962;2023-03-14T03:23:09;8.00;1.00
25622;DHT22;13487;39.360;22.962;2023-03-14T03:25:35;7.80;1.00
25622;DHT22;13487;39.360;22.962;2023-03-14T03:28:01;7.60;1.00
25622;DHT22;13487;39.360;22.962;2023-03-14T03:30:27;7.60;1.00
25622;DHT22;13487;39.360;22.962;2023-03-14T03:32:53;7.80;1.00
25622;DHT22;13487;39.360;22.962;2023-03-14T03:35:19;7.70;1.00
25622;DHT22;13487;39.360;22.962;2023-03-14T03:37:44;7.80;1.00
25622;DHT22;13487;39.360;22.962;2023-03-14T03:40:10;7.70;1.00
25622;DHT22;13487;39.360;22.962;2023-03-14T03:42:36;7.40;99.90
25622;DHT22;13487;39.360;22.962;2023-03-14T03:45:03;7.20;1.00
25622;DHT22;13487;39.360;22.962;2023-03-14T03:47:30;7.40;1.00
25622;DHT22;13487;39.360;22.962;2023-03-14T03:49:56;7.50;1.00
25622;DHT22;13487;39.360;22.962;2023-03-14T03:52:22;7.20;1.00
25622;DHT22;13487;39.360;22.962;2023-03-14T03:54:47;7.10;1.00
25622;DHT22;13487;39.360;22.962;2023-03-14T03:57:13;7.10;1.00
25622;DHT22;13487;39.360;22.962;2023-03-14T03:59:39;7.10;1.00
25622;DHT22;13487;39.360;22.962;2023-03-14T04:02:06;7.00;48.00
25622;DHT22;13487;39.360;22.962;2023-03-14T04:04:32;7.00;99.90
25622;DHT22;13487;39.360;22.962;2023-03-14T04:06:58;7.20;87.60
25622;DHT22;13487;39.360;22.962;2023-03-14T04:09:24;7.30;99.90
25622;DHT22;13487;39.360;22.962;2023-03-14T04:11:49;7.40;1.00
25622;DHT22;13487;39.360;22.962;2023-03-14T04:14:15;7.40;1.00
25622;DHT22;13487;39.360;22.962;2023-03-14T04:16:41;7.40;1.00
25622;DHT22;13487;39.360;22.962;2023-03-14T04:19:07;7.30;1.00
25622;DHT22;13487;39.360;22.962;2023-03-14T04:21:32;7.10;96.10
25622;DHT22;13487;39.360;22.962;2023-03-14T04:23:58;7.10;66.90
25622;DHT22;13487;39.360;22.962;2023-03-14T04:26:24;7.20;1.00
25622;DHT22;13487;39.360;22.962;2023-03-14T04:28:50;7.00;99.90
25622;DHT22;13487;39.360;22.962;2023-03-14T04:31:20;7.10;1.00
25622;DHT22;13487;39.360;22.962;2023-03-14T04:33:46;7.40;1.00
25622;DHT22;13487;39.360;22.962;2023-03-14T04:36:12;7.20;1.00
25622;DHT22;13487;39.360;22.962;2023-03-14T04:38:39;7.30;1.00
25622;DHT22;13487;39.360;22.962;2023-03-14T04:41:05;7.50;1.00
25622;DHT22;13487;39.360;22.962;2023-03-14T04:43:31;7.60;1.00
25622;DHT22;13487;39.360;22.962;2023-03-14T04:45:57;7.60;99.90
25622;DHT22;13487;39.360;22.962;2023-03-14T04:48:24;7.70;1.00
25622;DHT22;13487;39.360;22.962;2023-03-14T04:50:51;7.80;1.00
25622;DHT22;13487;39.360;22.962;2023-03-14T04:53:18;7.90;1.00
25622;DHT22;13487;39.360;22.962;2023-03-14T04:55:51;7.70;1.00
25622;DHT22;13487;39.360;22.962;2023-03-14T04:58:17;7.90;1.00
25622;DHT22;13487;39.360;22.962;2023-03-14T05:00:44;7.80;99.90
25622;DHT22;13487;39.360;22.962;2023-03-14T05:03:10;7.40;99.90
25622;DHT22;13487;39.360;22.962;2023-03-14T05:05:35;7.20;1.00
25622;DHT22;13487;39.360;22.962;2023-03-14T05:08:01;7.30;1.00
25622;DHT22;13487;39.360;22.962;2023-03-14T05:10:27;7.50;1.00
25622;DHT22;13487;39.360;22.962;2023-03-14T05:12:53;7.80;99.90
25622;DHT22;13487;39.360;22.962;2023-03-14T05:15:18;8.10;1.00
25622;DHT22;13487;39.360;22.962;2023-03-14T05:17:44;8.80;99.90
25622;DHT22;13487;39.360;22.962;2023-03-14T05:20:11;9.80;1.00
25622;DHT22;13487;39.360;22.962;2023-03-14T05:22:42;10.80;99.90
25622;DHT22;13487;39.360;22.962;2023-03-14T05:25:10;12.70;1.00
25622;DHT22;13487;39.360;22.962;2023-03-14T05:27:36;13.60;1.00
25622;DHT22;13487;39.360;22.962;2023-03-14T05:30:04;13.60;1.00
25622;DHT22;13487;39.360;22.962;2023-03-14T05:32:30;14.50;99.90
25622;DHT22;13487;39.360;22.962;2023-03-14T05:34:56;15.00;99.90
25622;DHT22;13487;39.360;22.962;2023-03-14T05:37:25;15.50;99.90
25622;DHT22;13487;39.360;22.962;2023-03-14T05:39:50;15.70;99.90
25622;DHT22;13487;39.360;22.962;2023-03-14T05:42:16;15.10;96.50
25622;DHT22;13487;39.360;22.962;2023-03-14T05:44:42;15.70;26.30
25622;DHT22;13487;39.360;22.962;2023-03-14T05:47:08;14.30;80.90
25622;DHT22;13487;39.360;22.962;2023-03-14T05:49:33;14.10;96.30
25622;DHT22;13487;39.360;22.962;2023-03-14T05:51:59;15.10;60.10
25622;DHT22;13487;39.360;22.962;2023-03-14T05:54:25;15.00;26.30
25622;DHT22;13487;39.360;22.962;2023-03-14T05:56:50;16.30;1.00
25622;DHT22;13487;39.360;22.962;2023-03-14T05:59:16;15.70;1.00
25622;DHT22;13487;39.360;22.962;2023-03-14T06:01:42;15.70;1.00
25622;DHT22;13487;39.360;22.962;2023-03-14T06:04:08;16.30;1.00
25622;DHT22;13487;39.360;22.962;2023-03-14T06:06:33;16.50;1.00
25622;DHT22;13487;39.360;22.962;2023-03-14T06:08:59;17.10;1.00
25622;DHT22;13487;39.360;22.962;2023-03-14T06:11:25;17.10;1.00
25622;DHT22;13487;39.360;22.962;2023-03-14T06:13:51;16.20;1.00
25622;DHT22;13487;39.360;22.962;2023-03-14T06:16:17;14.80;1.00
25622;DHT22;13487;39.360;22.962;2023-03-14T06:18:42;13.50;1.00
25622;DHT22;13487;39.360;22.962;2023-03-14T06:21:09;12.70;14.90
25622;DHT22;13487;39.360;22.962;2023-03-14T06:23:34;12.30;53.60
25622;DHT22;13487;39.360;22.962;2023-03-14T06:26:00;12.10;92.30
25622;DHT22;13487;39.360;22.962;2023-03-14T06:28:26;11.70;99.90
25622;DHT22;13487;39.360;22.962;2023-03-14T06:30:52;11.40;99.90
25622;DHT22;13487;39.360;22.962;2023-03-14T06:33:17;11.50;99.90
25622;DHT22;13487;39.360;22.962;2023-03-14T06:35:44;11.00;99.90
25622;DHT22;13487;39.360;22.962;2023-03-14T06:38:10;11.40;99.90
25622;DHT22;13487;39.360;22.962;2023-03-14T06:40:35;11.50;99.90
25622;DHT22;13487;39.360;22.962;2023-03-14T06:43:01;11.70;99.90
25622;DHT22;13487;39.360;22.962;2023-03-14T06:45:27;11.80;99.90
25622;DHT22;13487;39.360;22.962;2023-03-14T06:47:53;11.80;99.90
25622;DHT22;13487;39.360;22.962;2023-03-14T06:50:18;11.70;99.90
25622;DHT22;13487;39.360;22.962;2023-03-14T06:52:44;11.60;99.90
25622;DHT22;13487;39.360;22.962;2023-03-14T06:55:14;11.50;99.90
25622;DHT22;13487;39.360;22.962;2023-03-14T06:57:39;11.70;99.90
25622;DHT22;13487;39.360;22.962;2023-03-14T07:00:06;12.00;99.90
25622;DHT22;13487;39.360;22.962;2023-03-14T07:02:32;12.00;99.90
25622;DHT22;13487;39.360;22.962;2023-03-14T07:04:57;12.10;99.90
25622;DHT22;13487;39.360;22.962;2023-03-14T07:07:23;12.20;99.90
25622;DHT22;13487;39.360;22.962;2023-03-14T07:09:49;12.10;99.90
25622;DHT22;13487;39.360;22.962;2023-03-14T07:12:15;12.00;99.90
25622;DHT22;13487;39.360;22.962;2023-03-14T07:14:40;12.00;99.90
25622;DHT22;13487;39.360;22.962;2023-03-14T07:17:06;12.00;99.90
25622;DHT22;13487;39.360;22.962;2023-03-14T07:19:32;11.90;99.90
25622;DHT22;13487;39.360;22.962;2023-03-14T07:21:57;12.10;99.90
25622;DHT22;13487;39.360;22.962;2023-03-14T07:24:23;12.20;99.90
25622;DHT22;13487;39.360;22.962;2023-03-14T07:26:49;12.30;99.90
25622;DHT22;13487;39.360;22.962;2023-03-14T07:29:15;12.20;99.90
25622;DHT22;13487;39.360;22.962;2023-03-14T07:31:40;12.20;99.90
25622;DHT22;13487;39.360;22.962;2023-03-14T07:34:06;12.20;99.90
25622;DHT22;13487;39.360;22.962;2023-03-14T07:36:32;12.20;99.90
25622;DHT22;13487;39.360;22.962;2023-03-14T07:38:58;12.30;99.90
25622;DHT22;13487;39.360;22.962;2023-03-14T07:41:24;12.30;99.90
25622;DHT22;13487;39.360;22.962;2023-03-14T07:43:50;12.50;99.90
25622;DHT22;13487;39.360;22.962;2023-03-14T07:46:15;12.50;99.90
25622;DHT22;13487;39.360;22.962;2023-03-14T07:48:42;12.40;99.90
25622;DHT22;13487;39.360;22.962;2023-03-14T07:51:08;12.70;99.90
25622;DHT22;13487;39.360;22.962;2023-03-14T07:53:34;12.80;99.90
25622;DHT22;13487;39.360;22.962;2023-03-14T07:56:00;12.90;99.90
25622;DHT22;13487;39.360;22.962;2023-03-14T07:58:25;13.00;99.90
25622;DHT22;13487;39.360;22.962;2023-03-14T08:00:51;12.90;99.90
25622;DHT22;13487;39.360;22.962;2023-03-14T08:03:18;13.10;99.90
25622;DHT22;13487;39.360;22.962;2023-03-14T08:05:46;13.10;99.90
25622;DHT22;13487;39.360;22.962;2023-03-14T08:08:12;13.00;99.90
25622;DHT22;13487;39.360;22.962;2023-03-14T08:10:38;13.10;99.90
25622;DHT22;13487;39.360;22.962;2023-03-14T08:13:03;13.10;99.90
25622;DHT22;13487;39.360;22.962;2023-03-14T08:15:30;13.30;99.90
25622;DHT22;13487;39.360;22.962;2023-03-14T08:17:56;13.40;99.90
25622;DHT22;13487;39.360;22.962;2023-03-14T08:20:27;13.30;99.90
25622;DHT22;13487;39.360;22.962;2023-03-14T08:22:58;13.30;99.90
25622;DHT22;13487;39.360;22.962;2023-03-14T08:25:25;13.50;99.90
25622;DHT22;13487;39.360;22.962;2023-03-14T08:27:51;13.50;99.90
25622;DHT22;13487;39.360;22.962;2023-03-14T08:30:19;13.50;99.90
25622;DHT22;13487;39.360;22.962;2023-03-14T08:32:45;13.50;99.90
25622;DHT22;13487;39.360;22.962;2023-03-14T08:35:12;13.60;99.90
25622;DHT22;13487;39.360;22.962;2023-03-14T08:37:38;13.50;99.90
25622;DHT22;13487;39.360;22.962;2023-03-14T08:40:05;13.50;99.90
25622;DHT22;13487;39.360;22.962;2023-03-14T08:42:33;13.50;99.90
25622;DHT22;13487;39.360;22.962;2023-03-14T08:44:58;13.50;99.90
25622;DHT22;13487;39.360;22.962;2023-03-14T08:47:24;13.50;99.90
25622;DHT22;13487;39.360;22.962;2023-03-14T08:49:50;13.50;99.90
25622;DHT22;13487;39.360;22.962;2023-03-14T08:52:16;13.40;99.90
25622;DHT22;13487;39.360;22.962;2023-03-14T08:54:44;13.20;99.90
25622;DHT22;13487;39.360;22.962;2023-03-14T08:57:10;13.30;99.90
25622;DHT22;13487;39.360;22.962;2023-03-14T08:59:36;13.40;99.90
25622;DHT22;13487;39.360;22.962;2023-03-14T09:02:02;13.40;99.90
25622;DHT22;13487;39.360;22.962;2023-03-14T09:04:32;13.40;99.90
25622;DHT22;13487;39.360;22.962;2023-03-14T09:06:59;13.30;99.90
25622;DHT22;13487;39.360;22.962;2023-03-14T09:09:25;13.40;99.90
25622;DHT22;13487;39.360;22.962;2023-03-14T09:11:55;13.30;99.90
25622;DHT22;13487;39.360;22.962;2023-03-14T09:14:21;13.30;99.90
25622;DHT22;13487;39.360;22.962;2023-03-14T09:16:47;13.40;99.90
25622;DHT22;13487;39.360;22.962;2023-03-14T09:19:13;13.30;99.90
25622;DHT22;13487;39.360;22.962;2023-03-14T09:21:38;13.40;99.90
25622;DHT22;13487;39.360;22.962;2023-03-14T09:24:05;13.70;99.90
25622;DHT22;13487;39.360;22.962;2023-03-14T09:26:30;13.50;99.90
25622;DHT22;13487;39.360;22.962;2023-03-14T09:28:56;13.40;99.90
25622;DHT22;13487;39.360;22.962;2023-03-14T09:31:22;13.40;99.90
25622;DHT22;13487;39.360;22.962;2023-03-14T09:33:48;13.50;99.90
25622;DHT22;13487;39.360;22.962;2023-03-14T09:36:14;13.70;99.90
25622;DHT22;13487;39.360;22.962;2023-03-14T09:38:40;13.80;99.90
25622;DHT22;13487;39.360;22.962;2023-03-14T09:41:21;13.60;1.00
25622;DHT22;13487;39.360;22.962;2023-03-14T09:44:00;13.50;1.00
25622;DHT22;13487;39.360;22.962;2023-03-14T09:46:29;13.50;1.00
25622;DHT22;13487;39.360;22.962;2023-03-14T09:48:56;13.50;1.00
25622;DHT22;13487;39.360;22.962;2023-03-14T09:51:21;13.60;1.00
25622;DHT22;13487;39.360;22.962;2023-03-14T09:53:50;13.40;1.00
25622;DHT22;13487;39.360;22.962;2023-03-14T09:56:23;13.50;1.00
25622;DHT22;13487;39.360;22.962;2023-03-14T09:58:56;13.60;1.00
25622;DHT22;13487;39.360;22.962;2023-03-14T10:01:26;13.80;1.00
25622;DHT22;13487;39.360;22.962;2023-03-14T10:03:56;13.90;1.00
25622;DHT22;13487;39.360;22.962;2023-03-14T10:06:26;13.90;1.00
25622;DHT22;13487;39.360;22.962;2023-03-14T10:08:52;14.10;1.00
25622;DHT22;13487;39.360;22.962;2023-03-14T10:11:19;14.20;99.90
25622;DHT22;13487;39.360;22.962;2023-03-14T10:16:14;14.40;99.90
25622;DHT22;13487;39.360;22.962;2023-03-14T10:18:44;14.30;99.90
25622;DHT22;13487;39.360;22.962;2023-03-14T10:21:38;14.00;1.00
25622;DHT22;13487;39.360;22.962;2023-03-14T10:24:26;14.00;1.00
25622;DHT22;13487;39.360;22.962;2023-03-14T10:26:55;13.90;1.00
25622;DHT22;13487;39.360;22.962;2023-03-14T10:29:21;14.00;1.00
25622;DHT22;13487;39.360;22.962;2023-03-14T10:31:53;13.90;1.00
25622;DHT22;13487;39.360;22.962;2023-03-14T10:34:34;14.20;1.00
25622;DHT22;13487;39.360;22.962;2023-03-14T10:37:23;14.20;1.00
25622;DHT22;13487;39.360;22.962;2023-03-14T10:39:53;14.20;1.00
25622;DHT22;13487;39.360;22.962;2023-03-14T10:42:26;14.00;1.00
25622;DHT22;13487;39.360;22.962;2023-03-14T10:45:34;14.20;1.00
25622;DHT22;13487;39.360;22.962;2023-03-14T10:48:22;14.40;99.90
25622;DHT22;13487;39.360;22.962;2023-03-14T10:51:04;14.40;99.90
25622;DHT22;13487;39.360;22.962;2023-03-14T10:53:44;14.30;99.90
25622;DHT22;13487;39.360;22.962;2023-03-14T10:56:15;14.30;99.90
25622;DHT22;13487;39.360;22.962;2023-03-14T10:58:45;14.30;99.90
25622;DHT22;13487;39.360;22.962;2023-03-14T11:01:29;14.30;99.90
25622;DHT22;13487;39.360;22.962;2023-03-14T11:06:41;14.30;99.90
25622;DHT22;13487;39.360;22.962;2023-03-14T11:14:55;14.30;99.90
25622;DHT22;13487;39.360;22.962;2023-03-14T11:17:52;14.30;99.90
25622;DHT22;13487;39.360;22.962;2023-03-14T11:23:27;14.40;99.90
25622;DHT22;13487;39.360;22.962;2023-03-14T11:28:50;14.50;99.90
25622;DHT22;13487;39.360;22.962;2023-03-14T11:31:27;14.50;99.90
25622;DHT22;13487;39.360;22.962;2023-03-14T11:36:55;14.10;99.90
25622;DHT22;13487;39.360;22.962;2023-03-14T11:39:27;14.20;99.90
25622;DHT22;13487;39.360;22.962;2023-03-14T11:41:57;14.20;99.90
25622;DHT22;13487;39.360;22.962;2023-03-14T11:44:29;14.20;99.90
25622;DHT22;13487;39.360;22.962;2023-03-14T11:47:04;14.30;99.90
25622;DHT22;13487;39.360;22.962;2023-03-14T11:49:38;14.10;99.90
25622;DHT22;13487;39.360;22.962;2023-03-14T11:55:00;14.30;99.90
25622;DHT22;13487;39.360;22.962;2023-03-14T11:57:28;14.40;99.90
25622;DHT22;13487;39.360;22.962;2023-03-14T12:00:21;14.50;99.90
25622;DHT22;13487;39.360;22.962;2023-03-14T12:02:59;14.40;99.90
25622;DHT22;13487;39.360;22.962;2023-03-14T12:13:37;14.00;1.00
25622;DHT22;13487;39.360;22.962;2023-03-14T12:16:25;14.20;1.00
25622;DHT22;13487;39.360;22.962;2023-03-14T12:18:53;14.20;1.00
25622;DHT22;13487;39.360;22.962;2023-03-14T12:21:19;14.30;1.00
25622;DHT22;13487;39.360;22.962;2023-03-14T12:26:17;14.40;1.00
25622;DHT22;13487;39.360;22.962;2023-03-14T12:31:38;14.60;1.00
25622;DHT22;13487;39.360;22.962;2023-03-14T12:39:10;14.70;1.00
25622;DHT22;13487;39.360;22.962;2023-03-14T12:41:41;14.60;1.00
25622;DHT22;13487;39.360;22.962;2023-03-14T12:46:54;14.50;99.90
25622;DHT22;13487;39.360;22.962;2023-03-14T12:49:20;14.40;99.90
25622;DHT22;13487;39.360;22.962;2023-03-14T12:51:46;14.30;99.90
25622;DHT22;13487;39.360;22.962;2023-03-14T12:57:09;14.30;99.90
25622;DHT22;13487;39.360;22.962;2023-03-14T12:59:52;14.40;99.90
25622;DHT22;13487;39.360;22.962;2023-03-14T13:04:53;14.50;99.90
25622;DHT22;13487;39.360;22.962;2023-03-14T13:08:08;14.60;99.90
25622;DHT22;13487;39.360;22.962;2023-03-14T13:10:23;14.60;99.70
25622;DHT22;13487;39.360;22.962;2023-03-14T13:12:54;14.60;54.90
25622;DHT22;13487;39.360;22.962;2023-03-14T13:15:24;14.50;13.20
25622;DHT22;13487;39.360;22.962;2023-03-14T13:17:52;14.60;1.00
25622;DHT22;13487;39.360;22.962;2023-03-14T13:20:32;14.40;1.00
25622;DHT22;13487;39.360;22.962;2023-03-14T13:22:59;14.40;1.00
25622;DHT22;13487;39.360;22.962;2023-03-14T13:25:29;14.50;1.00
25622;DHT22;13487;39.360;22.962;2023-03-14T13:27:57;14.50;1.00
25622;DHT22;13487;39.360;22.962;2023-03-14T13:30:24;14.60;1.00
25622;DHT22;13487;39.360;22.962;2023-03-14T13:32:51;14.70;1.00
25622;DHT22;13487;39.360;22.962;2023-03-14T13:37:46;14.60;1.00
25622;DHT22;13487;39.360;22.962;2023-03-14T13:40:19;14.60;1.00
25622;DHT22;13487;39.360;22.962;2023-03-14T13:42:45;14.60;1.00
25622;DHT22;13487;39.360;22.962;2023-03-14T13:45:12;14.50;1.00
25622;DHT22;13487;39.360;22.962;2023-03-14T13:47:38;14.60;1.00
25622;DHT22;13487;39.360;22.962;2023-03-14T13:50:04;14.70;1.00
25622;DHT22;13487;39.360;22.962;2023-03-14T13:52:31;14.50;1.00
25622;DHT22;13487;39.360;22.962;2023-03-14T13:54:57;14.60;1.00
25622;DHT22;13487;39.360;22.962;2023-03-14T13:57:24;14.40;1.00
25622;DHT22;13487;39.360;22.962;2023-03-14T14:00:03;14.50;1.40
25622;DHT22;13487;39.360;22.962;2023-03-14T14:02:32;14.40;1.00
25622;DHT22;13487;39.360;22.962;2023-03-14T14:04:58;14.20;1.00
25622;DHT22;13487;39.360;22.962;2023-03-14T14:07:24;14.20;1.00
25622;DHT22;13487;39.360;22.962;2023-03-14T14:09:51;14.40;99.90
25622;DHT22;13487;39.360;22.962;2023-03-14T14:14:47;14.10;1.00
25622;DHT22;13487;39.360;22.962;2023-03-14T14:17:19;14.30;1.00
25622;DHT22;13487;39.360;22.962;2023-03-14T14:19:47;14.40;80.70
25622;DHT22;13487;39.360;22.962;2023-03-14T14:22:13;14.30;40.80
25622;DHT22;13487;39.360;22.962;2023-03-14T14:24:39;14.50;99.90
25622;DHT22;13487;39.360;22.962;2023-03-14T14:27:17;14.40;1.00
25622;DHT22;13487;39.360;22.962;2023-03-14T14:29:44;14.50;1.00
25622;DHT22;13487;39.360;22.962;2023-03-14T14:32:21;14.30;1.00
25622;DHT22;13487;39.360;22.962;2023-03-14T14:34:59;14.20;1.00
25622;DHT22;13487;39.360;22.962;2023-03-14T14:37:28;14.10;1.00
25622;DHT22;13487;39.360;22.962;2023-03-14T14:39:57;14.10;1.00
25622;DHT22;13487;39.360;22.962;2023-03-14T14:42:27;14.10;1.00
25622;DHT22;13487;39.360;22.962;2023-03-14T14:44:53;14.10;1.00
25622;DHT22;13487;39.360;22.962;2023-03-14T14:47:22;14.20;1.00
25622;DHT22;13487;39.360;22.962;2023-03-14T14:49:49;14.10;1.00
25622;DHT22;13487;39.360;22.962;2023-03-14T14:52:19;14.20;1.00
25622;DHT22;13487;39.360;22.962;2023-03-14T14:54:47;14.20;1.00
25622;DHT22;13487;39.360;22.962;2023-03-14T14:57:26;14.30;1.00
25622;DHT22;13487;39.360;22.962;2023-03-14T15:00:00;14.40;1.00
25622;DHT22;13487;39.360;22.962;2023-03-14T15:02:45;14.30;1.00
25622;DHT22;13487;39.360;22.962;2023-03-14T15:05:19;14.20;1.00
25622;DHT22;13487;39.360;22.962;2023-03-14T15:07:45;14.30;1.00
25622;DHT22;13487;39.360;22.962;2023-03-14T15:10:14;14.20;1.00
25622;DHT22;13487;39.360;22.962;2023-03-14T15:12:40;14.10;1.00
25622;DHT22;13487;39.360;22.962;2023-03-14T15:15:07;14.00;1.00
25622;DHT22;13487;39.360;22.962;2023-03-14T15:17:34;14.00;1.00
25622;DHT22;13487;39.360;22.962;2023-03-14T15:20:02;14.00;1.00
25622;DHT22;13487;39.360;22.962;2023-03-14T15:22:29;13.90;1.00
25622;DHT22;13487;39.360;22.962;2023-03-14T15:24:55;13.90;1.00
25622;DHT22;13487;39.360;22.962;2023-03-14T15:27:21;14.00;1.00
25622;DHT22;13487;39.360;22.962;2023-03-14T15:29:47;13.80;1.00
25622;DHT22;13487;39.360;22.962;2023-03-14T15:32:15;13.80;1.00
25622;DHT22;13487;39.360;22.962;2023-03-14T15:34:42;13.80;1.00
25622;DHT22;13487;39.360;22.962;2023-03-14T15:37:13;13.80;1.00
25622;DHT22;13487;39.360;22.962;2023-03-14T15:39:42;13.80;1.00
25622;DHT22;13487;39.360;22.962;2023-03-14T15:42:08;13.80;1.00
25622;DHT22;13487;39.360;22.962;2023-03-14T15:44:35;13.80;1.00
25622;DHT22;13487;39.360;22.962;2023-03-14T15:47:01;13.70;1.00
25622;DHT22;13487;39.360;22.962;2023-03-14T15:49:28;13.80;1.00
25622;DHT22;13487;39.360;22.962;2023-03-14T15:51:54;13.80;1.00
25622;DHT22;13487;39.360;22.962;2023-03-14T15:54:20;13.70;1.00
25622;DHT22;13487;39.360;22.962;2023-03-14T15:56:46;13.70;1.00
25622;DHT22;13487;39.360;22.962;2023-03-14T15:59:12;13.70;1.00
25622;DHT22;13487;39.360;22.962;2023-03-14T16:01:37;13.60;1.00
25622;DHT22;13487;39.360;22.962;2023-03-14T16:04:03;13.50;1.00
25622;DHT22;13487;39.360;22.962;2023-03-14T16:06:29;13.50;1.00
25622;DHT22;13487;39.360;22.962;2023-03-14T16:08:56;13.50;1.00
25622;DHT22;13487;39.360;22.962;2023-03-14T16:11:22;13.40;1.00
25622;DHT22;13487;39.360;22.962;2023-03-14T16:13:48;13.30;1.00
25622;DHT22;13487;39.360;22.962;2023-03-14T16:16:14;13.30;1.00
25622;DHT22;13487;39.360;22.962;2023-03-14T16:18:40;13.30;1.00
25622;DHT22;13487;39.360;22.962;2023-03-14T16:21:13;13.20;1.00
25622;DHT22;13487;39.360;22.962;2023-03-14T16:23:39;13.20;1.00
25622;DHT22;13487;39.360;22.962;2023-03-14T16:26:11;13.20;1.00
25622;DHT22;13487;39.360;22.962;2023-03-14T16:28:38;13.10;1.00
25622;DHT22;13487;39.360;22.962;2023-03-14T16:31:06;13.10;1.00
25622;DHT22;13487;39.360;22.962;2023-03-14T16:33:33;13.00;1.00
25622;DHT22;13487;39.360;22.962;2023-03-14T16:36:01;12.90;58.40
25622;DHT22;13487;39.360;22.962;2023-03-14T16:38:31;12.90;99.90